This is the latest recevied weather packets stored in our database for station/object W5GGH. If no packets are shown the sender has not sent any weather packets the latest 1 day(s).
| Time | Temp. | Humidity | Pressure | Rain* | Wind** | Luminosity | Snow |
|---|---|---|---|---|---|---|---|
| 1778021668 | 30° C | 49% | 1020.8 hPa | 0 mm | 0.89 m/s, 358° | 245 W/m² | - |
| 1778021364 | 30.56° C | 46% | 1020.8 hPa | 0 mm | 0.89 m/s, 19° | 182 W/m² | - |
| 1778021061 | 31.11° C | 45% | 1020.6 hPa | 0 mm | 0.89 m/s, 353° | 191 W/m² | - |
| 1778020758 | 31.67° C | 45% | 1020.5 hPa | 0 mm | 1.34 m/s, 340° | 268 W/m² | - |
| 1778020455 | 31.67° C | 46% | 1020.6 hPa | 0 mm | 1.79 m/s, 1° | 325 W/m² | - |
| 1778020151 | 32.22° C | 45% | 1020.5 hPa | 0 mm | 0.45 m/s, 43° | 300 W/m² | - |
| 1778019848 | 32.78° C | 43% | 1020.5 hPa | 0 mm | 2.24 m/s, 27° | 323 W/m² | - |
| 1778019544 | 33.89° C | 43% | 1020.3 hPa | 0 mm | 0.89 m/s, 2° | 261 W/m² | - |
| 1778019241 | 33.89° C | 44% | 1020.4 hPa | 0 mm | 0.89 m/s, 0° | 331 W/m² | - |
| 1778018938 | 33.33° C | 44% | 1020.2 hPa | 0 mm | 0.89 m/s, 26° | 597 W/m² | - |
| 1778018635 | 33.33° C | 43% | 1020.2 hPa | 0 mm | 0.89 m/s, 356° | 555 W/m² | - |
| 1778018333 | 33.33° C | 44% | 1020.1 hPa | 0 mm | 0.89 m/s, 356° | 575 W/m² | - |
| 1778018031 | 33.33° C | 44% | 1020.3 hPa | 0 mm | 0.89 m/s, 12° | 293 W/m² | - |
| 1778017729 | 33.33° C | 43% | 1020.2 hPa | 0 mm | 0.45 m/s, 20° | 232 W/m² | - |
| 1778017426 | 33.33° C | 41% | 1020.1 hPa | 0 mm | 0.89 m/s, 330° | 232 W/m² | - |
| 1778017123 | 33.33° C | 43% | 1020.2 hPa | 0 mm | 0.89 m/s, 6° | 239 W/m² | - |
| 1778016821 | 33.89° C | 41% | 1020.3 hPa | 0 mm | 0.89 m/s, 334° | 221 W/m² | - |
| 1778016517 | 34.44° C | 42% | 1020.3 hPa | 0 mm | 1.34 m/s, 318° | 346 W/m² | - |
| 1778016214 | 33.89° C | 41% | 1020.4 hPa | 0 mm | 0.89 m/s, 338° | 636 W/m² | - |
| 1778015910 | 34.44° C | 40% | 1020.3 hPa | 0 mm | 1.34 m/s, 5° | 538 W/m² | - |
| 1778015608 | 34.44° C | 44% | 1020.4 hPa | 0 mm | 1.34 m/s, 310° | 645 W/m² | - |
| 1778015304 | 34.44° C | 46% | 1020.4 hPa | 0 mm | 0 m/s | 612 W/m² | - |
| 1778015001 | 34.44° C | 47% | 1020.7 hPa | 0 mm | 0.45 m/s, 50° | 493 W/m² | - |
| 1778014698 | 34.44° C | 42% | 1020.6 hPa | 0 mm | 0.45 m/s, 19° | 648 W/m² | - |
| 1778014396 | 34.44° C | 46% | 1020.9 hPa | 0 mm | 0.45 m/s, 23° | 681 W/m² | - |
* Rain latest hour (hover to see other rain measurements)
** Current wind speed in m/s (hover to see current wind gust speed)